createdAt,value
2018-05-18T00:00:49.292Z,11.77
2018-05-18T00:03:16.846Z,13.13
2018-05-18T00:05:44.417Z,14.83
2018-05-18T00:08:12.764Z,16.00
2018-05-18T00:10:40.349Z,15.27
2018-05-18T00:13:07.918Z,15.23
2018-05-18T00:15:35.533Z,9.60
2018-05-18T00:18:03.072Z,14.07
2018-05-18T00:20:30.679Z,13.30
2018-05-18T00:22:58.257Z,18.97
2018-05-18T00:25:25.846Z,15.90
2018-05-18T00:27:53.418Z,15.17
2018-05-18T00:30:20.973Z,18.40
2018-05-18T00:32:48.743Z,16.87
2018-05-18T00:35:16.374Z,15.90
2018-05-18T00:37:43.837Z,16.37
2018-05-18T00:40:11.390Z,12.77
2018-05-18T00:42:38.928Z,12.47
2018-05-18T00:45:06.684Z,19.00
2018-05-18T00:47:34.972Z,16.77
2018-05-18T00:50:02.525Z,20.97
2018-05-18T00:52:30.063Z,17.17
2018-05-18T00:54:58.394Z,14.93
2018-05-18T00:57:25.908Z,17.23
2018-05-18T00:59:53.446Z,15.07
2018-05-18T01:02:21.804Z,21.53
2018-05-18T01:04:49.361Z,17.27
2018-05-18T01:07:16.925Z,17.60
2018-05-18T01:09:44.484Z,21.20
2018-05-18T01:12:12.058Z,20.53
2018-05-18T01:14:39.652Z,16.10
2018-05-18T01:17:07.211Z,20.23
2018-05-18T01:19:35.611Z,15.63
2018-05-18T01:22:03.136Z,15.93
2018-05-18T01:24:30.678Z,17.90
2018-05-18T01:26:58.997Z,14.90
2018-05-18T01:29:26.610Z,16.17
2018-05-18T01:31:54.152Z,16.43
2018-05-18T01:34:21.743Z,22.03
2018-05-18T01:36:50.052Z,18.33
2018-05-18T01:39:17.580Z,13.20
2018-05-18T01:41:45.884Z,19.97
2018-05-18T01:44:13.499Z,19.73
2018-05-18T01:46:41.102Z,17.10
2018-05-18T01:49:08.627Z,16.73
2018-05-18T01:51:36.965Z,22.97
2018-05-18T01:54:04.552Z,16.40
2018-05-18T01:56:32.018Z,23.23
2018-05-18T01:59:00.354Z,16.53
2018-05-18T02:01:27.891Z,18.13
2018-05-18T02:03:55.469Z,17.43
2018-05-18T02:06:23.009Z,16.63
2018-05-18T02:08:50.554Z,19.57
2018-05-18T02:11:18.096Z,19.83
2018-05-18T02:13:46.964Z,20.23
2018-05-18T02:16:14.584Z,17.53
2018-05-18T02:18:42.153Z,22.37
2018-05-18T02:21:09.696Z,22.37
2018-05-18T02:23:37.250Z,24.70
2018-05-18T02:26:04.773Z,25.07
2018-05-18T02:28:33.093Z,18.07
2018-05-18T02:31:00.732Z,18.50
2018-05-18T02:33:28.323Z,18.10
2018-05-18T02:35:55.864Z,17.03
2018-05-18T02:38:24.174Z,21.27
2018-05-18T02:40:51.708Z,19.07
2018-05-18T02:43:19.256Z,17.60
2018-05-18T02:45:46.843Z,15.60
2018-05-18T02:48:14.404Z,19.20
2018-05-18T02:50:41.984Z,16.47
2018-05-18T02:53:09.568Z,16.10
2018-05-18T02:55:38.394Z,18.20
2018-05-18T02:58:05.940Z,12.40
2018-05-18T03:00:33.482Z,15.67
2018-05-18T03:03:01.048Z,16.63
2018-05-18T03:05:28.616Z,20.77
2018-05-18T03:07:56.951Z,15.03
2018-05-18T03:10:25.356Z,19.73
2018-05-18T03:12:53.648Z,17.20
2018-05-18T03:15:21.185Z,22.37
2018-05-18T03:17:49.489Z,18.03
2018-05-18T03:20:17.042Z,16.70
2018-05-18T03:22:44.584Z,20.37
2018-05-18T03:25:12.188Z,17.03
2018-05-18T03:27:39.716Z,21.37
2018-05-18T03:30:07.278Z,19.17
2018-05-18T03:32:34.844Z,24.27
2018-05-18T03:35:02.389Z,18.60
2018-05-18T03:37:29.994Z,18.83
2018-05-18T03:39:57.531Z,17.30
2018-05-18T03:42:25.055Z,14.70
2018-05-18T03:44:52.598Z,15.10
2018-05-18T03:47:20.195Z,18.20
2018-05-18T03:49:47.740Z,21.10
2018-05-18T03:52:15.293Z,17.07
2018-05-18T03:54:42.900Z,16.80
2018-05-18T03:57:10.515Z,15.67
2018-05-18T03:59:38.071Z,18.67
2018-05-18T04:02:17.570Z,17.20
2018-05-18T04:04:57.019Z,21.73
2018-05-18T04:07:37.364Z,26.93
2018-05-18T04:10:04.909Z,23.00
2018-05-18T04:12:32.510Z,25.70
2018-05-18T04:15:00.836Z,21.33
2018-05-18T04:17:28.399Z,22.70
2018-05-18T04:19:56.037Z,20.67
2018-05-18T04:22:24.246Z,15.07
2018-05-18T04:24:51.813Z,19.30
2018-05-18T04:27:19.356Z,15.60
2018-05-18T04:29:46.901Z,18.10
2018-05-18T04:32:14.477Z,20.57
2018-05-18T04:34:42.107Z,21.83
2018-05-18T04:37:09.662Z,19.53
2018-05-18T04:39:37.222Z,14.43
2018-05-18T04:42:04.780Z,17.80
2018-05-18T04:44:32.352Z,18.30
2018-05-18T04:46:59.891Z,13.23
2018-05-18T04:49:28.238Z,14.93
2018-05-18T04:51:56.550Z,16.47
2018-05-18T04:54:24.087Z,14.37
2018-05-18T04:56:51.637Z,20.60
2018-05-18T04:59:19.989Z,16.87
2018-05-18T05:01:47.610Z,14.07
2018-05-18T05:04:15.168Z,15.10
2018-05-18T05:06:42.834Z,21.63
2018-05-18T05:09:10.371Z,13.03
2018-05-18T05:11:37.897Z,17.63
2018-05-18T05:14:05.414Z,22.37
2018-05-18T05:16:32.956Z,18.80
2018-05-18T05:19:00.501Z,20.93
2018-05-18T05:21:28.026Z,23.10
2018-05-18T05:23:55.580Z,22.93
2018-05-18T05:26:23.136Z,29.93
2018-05-18T05:28:50.676Z,22.73
2018-05-18T05:31:18.240Z,24.70
2018-05-18T05:33:45.908Z,24.83
2018-05-18T05:36:13.577Z,23.43
2018-05-18T05:38:41.126Z,20.97
2018-05-18T05:41:08.670Z,26.47
2018-05-18T05:43:36.224Z,22.67
2018-05-18T05:46:03.777Z,23.03
2018-05-18T05:48:31.336Z,23.13
2018-05-18T05:50:58.877Z,29.40
2018-05-18T05:53:26.452Z,28.30
2018-05-18T05:55:53.994Z,28.20
2018-05-18T05:58:21.571Z,25.50
2018-05-18T06:00:49.229Z,25.47
2018-05-18T06:03:16.774Z,29.60
2018-05-18T06:05:44.324Z,30.43
2018-05-18T06:08:12.021Z,27.53
2018-05-18T06:10:39.565Z,36.03
2018-05-18T06:13:07.137Z,28.90
2018-05-18T06:15:34.724Z,32.93
2018-05-18T06:18:02.265Z,31.40
2018-05-18T06:20:29.806Z,31.07
2018-05-18T06:22:57.350Z,29.17
2018-05-18T06:25:24.896Z,30.03
2018-05-18T06:27:52.504Z,30.67
2018-05-18T06:30:20.055Z,33.93
2018-05-18T06:32:47.639Z,35.73
2018-05-18T06:35:15.291Z,29.87
2018-05-18T06:37:42.761Z,31.47
2018-05-18T06:40:11.109Z,37.83
2018-05-18T06:42:38.686Z,30.03
2018-05-18T06:45:06.256Z,28.90
2018-05-18T06:47:33.789Z,29.90
2018-05-18T06:50:01.472Z,37.57
2018-05-18T06:52:30.169Z,34.57
2018-05-18T06:54:57.682Z,28.87
2018-05-18T06:57:25.219Z,33.53
2018-05-18T06:59:52.800Z,32.40
2018-05-18T07:02:20.384Z,29.57
2018-05-18T07:04:47.957Z,31.13
2018-05-18T07:07:16.296Z,38.50
2018-05-18T07:09:43.856Z,33.00
2018-05-18T07:12:11.412Z,29.17
2018-05-18T07:14:38.970Z,32.33
2018-05-18T07:17:06.542Z,26.67
2018-05-18T07:19:34.132Z,33.63
2018-05-18T07:22:01.770Z,33.47
2018-05-18T07:24:29.327Z,35.00
2018-05-18T07:26:56.876Z,29.93
2018-05-18T07:29:24.414Z,27.30
2018-05-18T07:31:51.958Z,31.03
2018-05-18T07:34:19.495Z,27.60
2018-05-18T07:36:47.082Z,28.03
2018-05-18T07:39:14.636Z,30.53
2018-05-18T07:41:42.248Z,33.87
2018-05-18T07:44:09.845Z,29.03
2018-05-18T07:46:37.381Z,30.27
2018-05-18T07:49:04.918Z,32.03
2018-05-18T07:51:32.488Z,30.57
2018-05-18T07:54:00.052Z,28.93
2018-05-18T07:56:27.613Z,35.30
2018-05-18T07:58:55.923Z,30.80
2018-05-18T08:01:23.607Z,30.83
2018-05-18T08:03:51.069Z,30.40
2018-05-18T08:06:18.617Z,32.13
2018-05-18T08:08:46.181Z,30.63
2018-05-18T08:11:13.773Z,31.17
2018-05-18T08:13:41.303Z,37.13
2018-05-18T08:16:08.854Z,34.07
2018-05-18T08:18:36.412Z,32.00
2018-05-18T08:21:03.988Z,37.60
2018-05-18T08:23:41.280Z,35.33
2018-05-18T08:26:09.660Z,34.83
2018-05-18T08:28:49.205Z,32.60
2018-05-18T08:31:16.843Z,33.77
2018-05-18T08:33:44.388Z,28.40
2018-05-18T08:36:11.924Z,27.87
2018-05-18T08:38:39.469Z,33.97
2018-05-18T08:41:07.776Z,28.10
2018-05-18T08:43:35.321Z,31.37
2018-05-18T08:46:02.848Z,30.73
2018-05-18T08:48:30.417Z,27.63
2018-05-18T08:50:58.029Z,28.53
2018-05-18T08:53:25.605Z,31.63
2018-05-18T08:55:53.155Z,30.27
2018-05-18T08:58:20.753Z,33.30
2018-05-18T09:00:49.059Z,30.67
2018-05-18T09:03:16.593Z,32.07
2018-05-18T09:05:44.144Z,29.40
2018-05-18T09:08:12.461Z,27.77
2018-05-18T09:10:40.766Z,27.87
2018-05-18T09:13:08.336Z,26.90
2018-05-18T09:15:35.864Z,27.37
2018-05-18T09:18:03.441Z,27.90
2018-05-18T09:20:31.104Z,29.27
2018-05-18T09:22:58.659Z,30.83
2018-05-18T09:25:26.227Z,27.70
2018-05-18T09:27:53.777Z,35.70
2018-05-18T09:30:21.336Z,28.47
2018-05-18T09:32:48.904Z,30.87
2018-05-18T09:35:16.453Z,33.93
2018-05-18T09:37:44.036Z,29.10
2018-05-18T09:40:11.581Z,30.43
2018-05-18T09:42:39.130Z,32.83
2018-05-18T09:45:06.789Z,29.07
2018-05-18T09:47:34.247Z,28.03
2018-05-18T09:50:01.813Z,30.70
2018-05-18T09:52:29.357Z,31.30
2018-05-18T09:54:57.139Z,32.67
2018-05-18T09:57:24.448Z,29.43
2018-05-18T09:59:52.049Z,29.30
2018-05-18T10:02:19.590Z,31.77
2018-05-18T10:04:47.141Z,32.93
2018-05-18T10:07:14.709Z,29.20
2018-05-18T10:09:42.293Z,31.83
2018-05-18T10:12:09.857Z,27.83
2018-05-18T10:14:37.401Z,30.60
2018-05-18T10:17:04.958Z,28.47
2018-05-18T10:19:32.518Z,31.10
2018-05-18T10:22:00.085Z,28.10
2018-05-18T10:24:27.649Z,34.90
2018-05-18T10:26:55.263Z,33.93
2018-05-18T10:29:22.726Z,27.67
2018-05-18T10:31:50.260Z,30.77
2018-05-18T10:34:17.812Z,28.60
2018-05-18T10:36:45.373Z,30.60
2018-05-18T10:39:12.939Z,28.10
2018-05-18T10:41:40.598Z,30.70
2018-05-18T10:44:08.128Z,24.73
2018-05-18T10:46:36.448Z,27.17
2018-05-18T10:49:03.976Z,28.90
2018-05-18T10:51:31.530Z,28.10
2018-05-18T10:53:59.866Z,28.33
2018-05-18T10:56:27.426Z,23.97
2018-05-18T10:58:54.975Z,26.80
2018-05-18T11:01:22.517Z,25.97
2018-05-18T11:03:50.056Z,29.10
2018-05-18T11:06:17.604Z,26.80
2018-05-18T11:08:45.204Z,23.77
2018-05-18T11:11:12.758Z,27.50
2018-05-18T11:13:40.304Z,27.07
2018-05-18T11:16:07.874Z,25.80
2018-05-18T11:18:35.404Z,27.00
2018-05-18T11:21:02.973Z,25.03
2018-05-18T11:23:30.521Z,25.27
2018-05-18T11:25:58.065Z,22.90
2018-05-18T11:28:26.361Z,25.73
2018-05-18T11:30:55.033Z,25.63
2018-05-18T11:33:23.334Z,24.63
2018-05-18T11:35:50.874Z,25.63
2018-05-18T11:38:18.433Z,25.30
2018-05-18T11:40:45.986Z,27.53
2018-05-18T11:43:14.291Z,27.83
2018-05-18T11:45:41.839Z,24.07
2018-05-18T11:48:09.394Z,23.77
2018-05-18T11:50:36.929Z,26.20
2018-05-18T11:53:04.469Z,26.77
2018-05-18T11:55:32.009Z,28.97
2018-05-18T11:57:59.563Z,24.33
2018-05-18T12:00:27.104Z,30.83
2018-05-18T12:02:54.661Z,30.53
2018-05-18T12:05:22.189Z,21.80
2018-05-18T12:07:50.507Z,22.67
2018-05-18T12:10:18.053Z,26.30
2018-05-18T12:12:45.636Z,22.50
2018-05-18T12:15:13.193Z,24.27
2018-05-18T12:17:40.914Z,23.80
2018-05-18T12:20:08.464Z,23.80
2018-05-18T12:22:36.772Z,20.47
2018-05-18T12:25:04.317Z,20.43
2018-05-18T12:27:31.853Z,20.93
2018-05-18T12:30:00.157Z,20.53
2018-05-18T12:32:27.708Z,20.40
2018-05-18T12:34:55.282Z,22.27
2018-05-18T12:37:22.821Z,21.77
2018-05-18T12:39:50.406Z,20.27
2018-05-18T12:42:17.949Z,22.23
2018-05-18T12:44:45.631Z,16.63
2018-05-18T12:47:13.085Z,15.20
2018-05-18T12:49:40.632Z,20.43
2018-05-18T12:52:08.404Z,18.80
2018-05-18T12:54:35.938Z,23.13
2018-05-18T12:57:03.483Z,17.43
2018-05-18T12:59:31.842Z,22.93
2018-05-18T13:01:59.348Z,23.93
2018-05-18T13:04:26.913Z,19.43
2018-05-18T13:06:55.236Z,23.13
2018-05-18T13:09:22.777Z,19.73
2018-05-18T13:11:50.453Z,22.37
2018-05-18T13:14:17.984Z,20.37
2018-05-18T13:16:45.526Z,20.07
2018-05-18T13:19:13.075Z,23.33
2018-05-18T13:21:40.600Z,22.27
2018-05-18T13:24:08.918Z,22.53
2018-05-18T13:26:36.517Z,19.90
2018-05-18T13:29:04.069Z,22.43
2018-05-18T13:31:31.645Z,23.17
2018-05-18T13:33:59.191Z,25.50
2018-05-18T13:36:26.740Z,22.30
2018-05-18T13:38:54.381Z,24.00
2018-05-18T13:41:21.827Z,18.90
2018-05-18T13:43:49.413Z,17.73
2018-05-18T13:46:16.950Z,15.97
2018-05-18T13:48:44.505Z,16.73
2018-05-18T13:51:12.098Z,19.60
2018-05-18T13:53:40.032Z,17.30
2018-05-18T13:56:07.675Z,13.77
2018-05-18T13:58:35.257Z,17.93
2018-05-18T14:01:02.813Z,14.87
2018-05-18T14:03:31.130Z,20.30
2018-05-18T14:05:58.754Z,20.70
2018-05-18T14:08:26.298Z,16.70
2018-05-18T14:10:53.859Z,15.83
2018-05-18T14:13:21.402Z,16.20
2018-05-18T14:15:48.942Z,17.60
2018-05-18T14:18:16.496Z,12.67
2018-05-18T14:20:44.823Z,12.40
2018-05-18T14:23:12.358Z,14.57
2018-05-18T14:25:39.905Z,17.53
2018-05-18T14:28:07.432Z,17.30
2018-05-18T14:30:34.987Z,12.33
2018-05-18T14:33:02.518Z,12.47
2018-05-18T14:35:30.066Z,12.83
2018-05-18T14:37:57.627Z,11.50
2018-05-18T14:40:25.133Z,10.93
2018-05-18T14:42:52.695Z,10.77
2018-05-18T14:45:20.243Z,11.47
2018-05-18T14:47:47.772Z,13.43
2018-05-18T14:50:15.320Z,12.13
2018-05-18T14:52:42.864Z,10.13
2018-05-18T14:55:10.417Z,10.53
2018-05-18T14:57:37.969Z,10.93
2018-05-18T15:00:05.630Z,10.50
2018-05-18T15:02:33.168Z,10.13
2018-05-18T15:05:01.485Z,11.57
2018-05-18T15:07:29.041Z,8.97
2018-05-18T15:09:56.582Z,15.80
2018-05-18T15:12:24.117Z,12.97
2018-05-18T15:14:51.648Z,12.20
2018-05-18T15:17:19.213Z,13.03
2018-05-18T15:19:46.758Z,9.30
2018-05-18T15:22:14.347Z,8.90
2018-05-18T15:24:42.105Z,9.23
2018-05-18T15:27:09.681Z,9.50
2018-05-18T15:29:37.976Z,10.77
2018-05-18T15:32:05.537Z,10.27
2018-05-18T15:34:33.069Z,11.37
2018-05-18T15:37:01.424Z,8.13
2018-05-18T15:39:28.969Z,10.63
2018-05-18T15:41:57.304Z,9.97
2018-05-18T15:44:24.846Z,11.23
2018-05-18T15:46:53.198Z,11.00
2018-05-18T15:49:20.739Z,11.33
2018-05-18T15:51:48.268Z,10.50
2018-05-18T15:54:15.797Z,10.17
2018-05-18T15:56:44.119Z,11.00
2018-05-18T15:59:11.678Z,10.90
2018-05-18T16:01:39.249Z,10.47
2018-05-18T16:04:06.874Z,11.83
2018-05-18T16:06:34.396Z,9.30
2018-05-18T16:09:01.943Z,8.83
2018-05-18T16:11:29.472Z,9.23
2018-05-18T16:13:57.027Z,10.43
2018-05-18T16:16:24.554Z,12.27
2018-05-18T16:18:52.131Z,11.00
2018-05-18T16:21:19.689Z,11.47
2018-05-18T16:23:47.221Z,11.70
2018-05-18T16:26:15.527Z,10.60
2018-05-18T16:28:43.053Z,7.37
2018-05-18T16:31:10.596Z,11.70
2018-05-18T16:33:38.120Z,8.90
2018-05-18T16:36:06.138Z,11.23
2018-05-18T16:38:34.820Z,10.83
2018-05-18T16:41:03.117Z,13.63
2018-05-18T16:43:30.668Z,11.27
2018-05-18T16:45:58.203Z,9.37
2018-05-18T16:48:25.762Z,13.20
2018-05-18T16:50:53.290Z,9.57
2018-05-18T16:53:20.857Z,11.43
2018-05-18T16:55:48.542Z,9.60
2018-05-18T16:58:16.087Z,11.43
2018-05-18T17:00:43.613Z,13.67
2018-05-18T17:03:11.166Z,12.83
2018-05-18T17:05:38.693Z,12.43
2018-05-18T17:08:07.093Z,10.27
2018-05-18T17:10:34.577Z,7.93
2018-05-18T17:13:02.135Z,10.43
2018-05-18T17:15:29.684Z,12.80
2018-05-18T17:17:57.216Z,10.13
2018-05-18T17:20:24.777Z,10.30
2018-05-18T17:22:52.313Z,11.67
2018-05-18T17:25:19.975Z,14.73
2018-05-18T17:27:47.528Z,12.10
2018-05-18T17:30:15.140Z,10.23
2018-05-18T17:32:42.709Z,14.83
2018-05-18T17:35:10.272Z,14.00
2018-05-18T17:37:37.837Z,11.90
2018-05-18T17:40:05.725Z,12.43
2018-05-18T17:42:33.472Z,13.67
2018-05-18T17:45:01.787Z,12.13
2018-05-18T17:47:29.334Z,12.70
2018-05-18T17:49:56.927Z,16.27
2018-05-18T17:52:24.458Z,15.73
2018-05-18T17:54:52.789Z,17.27
2018-05-18T17:57:20.326Z,18.87
2018-05-18T17:59:47.909Z,16.03
2018-05-18T18:02:16.260Z,17.63
2018-05-18T18:04:43.814Z,14.73
2018-05-18T18:07:11.359Z,17.80
2018-05-18T18:09:38.917Z,18.63
2018-05-18T18:12:06.454Z,20.10
2018-05-18T18:14:34.021Z,20.33
2018-05-18T18:17:02.332Z,20.47
2018-05-18T18:19:30.060Z,21.97
2018-05-18T18:21:58.394Z,16.90
2018-05-18T18:24:25.936Z,20.40
2018-05-18T18:26:53.501Z,19.30
2018-05-18T18:29:21.056Z,17.73
2018-05-18T18:31:48.613Z,20.53
2018-05-18T18:34:16.221Z,20.23
2018-05-18T18:36:43.766Z,18.07
2018-05-18T18:39:11.301Z,18.37
2018-05-18T18:41:38.930Z,20.17
2018-05-18T18:44:06.499Z,21.03
2018-05-18T18:46:34.099Z,22.60
2018-05-18T18:49:01.694Z,18.73
2018-05-18T18:51:29.257Z,24.23
2018-05-18T18:53:56.820Z,23.90
2018-05-18T18:56:24.376Z,21.17
2018-05-18T18:58:51.943Z,20.63
2018-05-18T19:01:20.283Z,24.57
2018-05-18T19:03:47.823Z,20.77
2018-05-18T19:06:15.388Z,26.33
2018-05-18T19:08:42.955Z,25.33
2018-05-18T19:11:10.501Z,23.40
2018-05-18T19:13:38.068Z,22.27
2018-05-18T19:16:05.658Z,25.93
2018-05-18T19:18:33.229Z,24.10
2018-05-18T19:21:00.814Z,23.70
2018-05-18T19:23:28.364Z,25.97
2018-05-18T19:25:55.929Z,26.27
2018-05-18T19:28:24.245Z,24.87
2018-05-18T19:30:51.777Z,28.00
2018-05-18T19:33:19.321Z,29.83
2018-05-18T19:35:46.902Z,28.37
2018-05-18T19:38:14.484Z,28.70
2018-05-18T19:40:43.263Z,28.17
2018-05-18T19:43:10.805Z,26.40
2018-05-18T19:45:38.373Z,27.27
2018-05-18T19:48:05.934Z,29.37
2018-05-18T19:50:33.493Z,33.60
2018-05-18T19:53:01.047Z,31.00
2018-05-18T19:55:28.654Z,29.33
2018-05-18T19:57:56.265Z,29.37
2018-05-18T20:00:23.873Z,27.83
2018-05-18T20:02:51.432Z,27.93
2018-05-18T20:05:19.010Z,28.63
2018-05-18T20:07:46.585Z,29.03
2018-05-18T20:10:14.146Z,29.40
2018-05-18T20:12:41.681Z,32.23
2018-05-18T20:15:09.247Z,31.77
2018-05-18T20:17:36.788Z,31.40
2018-05-18T20:20:04.357Z,35.73
2018-05-18T20:22:31.926Z,28.83
2018-05-18T20:24:59.547Z,33.03
2018-05-18T20:27:27.045Z,33.60
2018-05-18T20:29:54.603Z,39.50
2018-05-18T20:32:22.164Z,38.03
2018-05-18T20:34:49.722Z,33.60
2018-05-18T20:37:17.251Z,36.87
2018-05-18T20:39:45.300Z,29.63
2018-05-18T20:42:12.888Z,31.93
2018-05-18T20:44:40.438Z,30.80
2018-05-18T20:47:08.778Z,30.90
2018-05-18T20:49:36.425Z,32.27
2018-05-18T20:52:03.973Z,33.80
2018-05-18T20:54:31.544Z,30.67
2018-05-18T20:56:59.080Z,32.93
2018-05-18T20:59:26.643Z,33.50
2018-05-18T21:01:54.205Z,35.13
2018-05-18T21:04:21.819Z,39.00
2018-05-18T21:06:50.630Z,38.33
2018-05-18T21:09:18.190Z,36.17
2018-05-18T21:11:45.724Z,33.40
2018-05-18T21:14:14.054Z,37.77
2018-05-18T21:16:41.700Z,37.37
2018-05-18T21:19:09.290Z,37.03
2018-05-18T21:21:37.652Z,35.20
2018-05-18T21:24:05.232Z,37.73
2018-05-18T21:26:32.776Z,36.97
2018-05-18T21:29:00.350Z,33.17
2018-05-18T21:31:27.905Z,34.20
2018-05-18T21:33:55.512Z,42.33
2018-05-18T21:36:23.136Z,38.07
2018-05-18T21:38:50.725Z,36.40
2018-05-18T21:41:19.064Z,43.97
2018-05-18T21:43:46.636Z,38.70
2018-05-18T21:46:14.226Z,36.93
2018-05-18T21:48:41.854Z,42.57
2018-05-18T21:51:09.401Z,40.00
2018-05-18T21:53:36.996Z,38.23
2018-05-18T21:56:04.557Z,39.13
2018-05-18T21:58:32.167Z,40.90
2018-05-18T22:01:00.432Z,40.67
2018-05-18T22:03:28.005Z,40.73
2018-05-18T22:05:55.558Z,44.60
2018-05-18T22:08:23.125Z,39.73
2018-05-18T22:10:50.676Z,41.43
2018-05-18T22:13:18.244Z,41.00
2018-05-18T22:15:45.823Z,41.80
2018-05-18T22:18:13.445Z,41.83
2018-05-18T22:20:40.991Z,44.47
2018-05-18T22:23:08.655Z,43.13
2018-05-18T22:25:36.194Z,42.93
2018-05-18T22:28:03.787Z,37.53
2018-05-18T22:30:31.346Z,42.27
2018-05-18T22:32:58.924Z,38.00
2018-05-18T22:35:26.493Z,41.13
2018-05-18T22:37:54.104Z,38.97
2018-05-18T22:40:21.663Z,40.47
2018-05-18T22:42:49.236Z,42.70
2018-05-18T22:45:16.780Z,38.47
2018-05-18T22:47:44.363Z,38.60
2018-05-18T22:50:11.898Z,42.23
2018-05-18T22:52:40.221Z,39.93
2018-05-18T22:55:07.770Z,38.07
2018-05-18T22:57:35.340Z,41.03
2018-05-18T23:00:02.895Z,40.03
2018-05-18T23:02:30.444Z,39.60
2018-05-18T23:04:58.005Z,40.87
2018-05-18T23:07:25.570Z,48.63
2018-05-18T23:09:53.133Z,42.33
2018-05-18T23:12:20.685Z,40.07
2018-05-18T23:14:48.221Z,43.43
2018-05-18T23:17:15.769Z,45.50
2018-05-18T23:19:43.333Z,45.27
2018-05-18T23:22:11.454Z,40.43
2018-05-18T23:24:39.032Z,45.97
2018-05-18T23:27:06.653Z,46.83
2018-05-18T23:29:34.216Z,43.10
2018-05-18T23:32:01.771Z,45.67
2018-05-18T23:34:29.327Z,43.53
2018-05-18T23:36:56.879Z,42.10
2018-05-18T23:39:24.432Z,44.43
2018-05-18T23:41:51.988Z,47.80
2018-05-18T23:44:19.562Z,49.67
2018-05-18T23:46:47.099Z,45.20
2018-05-18T23:49:14.651Z,42.93
2018-05-18T23:51:42.203Z,43.67
2018-05-18T23:54:09.795Z,46.07
2018-05-18T23:56:37.293Z,40.87
2018-05-18T23:59:04.881Z,42.50
